createdAt,value
2023-05-01T00:01:35.743Z,9.90
2023-05-01T00:04:38.720Z,11.07
2023-05-01T00:07:41.413Z,9.07
2023-05-01T00:10:44.147Z,12.02
2023-05-01T00:13:47.012Z,10.13
2023-05-01T00:16:49.847Z,10.25
2023-05-01T00:19:53.788Z,11.98
2023-05-01T00:22:56.636Z,12.98
2023-05-01T00:25:59.294Z,9.48
2023-05-01T00:29:02.106Z,9.73
2023-05-01T00:32:05.914Z,9.70
2023-05-01T00:35:09.265Z,10.82
2023-05-01T00:38:12.126Z,9.75
2023-05-01T00:41:14.825Z,9.82
2023-05-01T00:44:17.617Z,13.60
2023-05-01T00:47:20.273Z,10.95
2023-05-01T00:50:23.287Z,10.38
2023-05-01T00:53:26.542Z,10.90
2023-05-01T00:56:31.205Z,9.43
2023-05-01T00:59:33.863Z,10.23
2023-05-01T01:02:37.359Z,10.38
2023-05-01T01:05:47.260Z,11.02
2023-05-01T01:09:08.360Z,9.32
2023-05-01T01:12:23.043Z,14.02
2023-05-01T01:16:04.027Z,14.10
2023-05-01T01:19:22.366Z,11.50
2023-05-01T01:22:26.807Z,11.00
2023-05-01T01:25:38.687Z,11.73
2023-05-01T01:29:07.511Z,11.18
2023-05-01T01:32:22.354Z,10.90
2023-05-01T01:35:27.326Z,10.73
2023-05-01T01:38:42.785Z,11.77
2023-05-01T01:41:50.588Z,12.13
2023-05-01T01:44:55.716Z,10.60
2023-05-01T01:47:59.299Z,11.07
2023-05-01T01:51:07.971Z,9.68
2023-05-01T01:54:12.091Z,10.48
2023-05-01T01:57:16.865Z,10.23
2023-05-01T02:00:20.848Z,10.07
2023-05-01T02:03:24.375Z,11.80
2023-05-01T02:06:28.533Z,12.15
2023-05-01T02:09:31.663Z,12.52
2023-05-01T02:12:34.610Z,10.48
2023-05-01T02:15:38.623Z,11.60
2023-05-01T02:18:41.940Z,10.90
2023-05-01T02:21:45.823Z,9.95
2023-05-01T02:24:49.234Z,10.48
2023-05-01T02:27:57.248Z,10.15
2023-05-01T02:31:00.269Z,10.63
2023-05-01T02:34:03.097Z,8.50
2023-05-01T02:37:07.571Z,11.85
2023-05-01T02:40:12.398Z,10.38
2023-05-01T02:43:17.372Z,10.43
2023-05-01T02:46:21.599Z,10.23
2023-05-01T02:49:24.857Z,8.83
2023-05-01T02:52:27.854Z,9.63
2023-05-01T02:55:30.509Z,10.50
2023-05-01T02:58:33.689Z,10.38
2023-05-01T03:01:36.460Z,10.23
2023-05-01T03:04:39.482Z,9.77
2023-05-01T03:07:42.347Z,11.70
2023-05-01T03:10:44.976Z,11.55
2023-05-01T03:13:48.084Z,10.80
2023-05-01T03:16:50.877Z,13.50
2023-05-01T03:19:53.886Z,10.60
2023-05-01T03:22:57.548Z,10.93
2023-05-01T03:26:00.195Z,10.63
2023-05-01T03:29:03.052Z,10.45
2023-05-01T03:32:06.678Z,12.20
2023-05-01T03:35:10.042Z,10.93
2023-05-01T03:38:12.755Z,10.95
2023-05-01T03:41:15.761Z,11.60
2023-05-01T03:44:18.389Z,11.23
2023-05-01T03:47:21.036Z,11.95
2023-05-01T03:50:23.954Z,12.13
2023-05-01T03:53:26.851Z,11.63
2023-05-01T03:56:35.691Z,14.43
2023-05-01T03:59:39.222Z,11.70
2023-05-01T04:02:42.476Z,12.37
2023-05-01T04:05:45.497Z,12.70
2023-05-01T04:08:48.186Z,12.55
2023-05-01T04:11:50.838Z,11.98
2023-05-01T04:14:53.758Z,12.20
2023-05-01T04:17:57.121Z,12.45
2023-05-01T04:20:59.909Z,12.87
2023-05-01T04:24:02.756Z,16.02
2023-05-01T04:27:06.221Z,14.85
2023-05-01T04:30:09.506Z,14.43
2023-05-01T04:33:12.144Z,15.45
2023-05-01T04:36:14.867Z,21.43
2023-05-01T04:39:17.484Z,16.75
2023-05-01T04:42:20.191Z,21.48
2023-05-01T04:45:22.927Z,16.33
2023-05-01T04:48:25.756Z,17.77
2023-05-01T04:51:29.232Z,16.83
2023-05-01T04:54:31.966Z,15.55
2023-05-01T04:57:34.843Z,17.48
2023-05-01T05:00:37.476Z,16.08
2023-05-01T05:03:40.792Z,19.85
2023-05-01T05:06:43.578Z,19.53
2023-05-01T05:09:46.758Z,18.87
2023-05-01T05:12:49.879Z,15.93
2023-05-01T05:15:53.067Z,19.92
2023-05-01T05:18:57.830Z,18.33
2023-05-01T05:22:03.165Z,17.00
2023-05-01T05:25:07.024Z,17.08
2023-05-01T05:28:09.729Z,19.23
2023-05-01T05:31:12.428Z,17.50
2023-05-01T05:34:15.203Z,19.27
2023-05-01T05:37:17.845Z,19.10
2023-05-01T05:40:20.525Z,15.95
2023-05-01T05:43:24.963Z,20.42
2023-05-01T05:46:28.827Z,21.17
2023-05-01T05:49:31.673Z,22.67
2023-05-01T05:52:34.357Z,20.20
2023-05-01T05:55:37.098Z,20.00
2023-05-01T05:58:39.743Z,20.30
2023-05-01T06:01:43.006Z,21.35
2023-05-01T06:04:46.305Z,19.30
2023-05-01T06:07:49.143Z,18.13
2023-05-01T06:10:51.916Z,17.58
2023-05-01T06:13:54.702Z,16.33
2023-05-01T06:16:57.710Z,15.63
2023-05-01T06:20:00.636Z,16.15
2023-05-01T06:23:03.348Z,15.90
2023-05-01T06:26:06.508Z,14.90
2023-05-01T06:29:09.731Z,15.55
2023-05-01T06:32:12.443Z,17.85
2023-05-01T06:35:15.342Z,14.60
2023-05-01T06:38:18.007Z,13.80
2023-05-01T06:41:22.257Z,14.75
2023-05-01T06:44:24.987Z,16.08
2023-05-01T06:47:27.933Z,12.85
2023-05-01T06:50:30.666Z,13.05
2023-05-01T06:53:33.499Z,10.73
2023-05-01T06:56:36.143Z,11.02
2023-05-01T06:59:39.037Z,11.02
2023-05-01T07:02:41.987Z,10.93
2023-05-01T07:05:44.931Z,10.38
2023-05-01T07:08:47.796Z,11.50
2023-05-01T07:11:50.747Z,12.63
2023-05-01T07:14:53.687Z,11.50
2023-05-01T07:17:56.742Z,10.68
2023-05-01T07:20:59.516Z,9.90
2023-05-01T07:24:02.220Z,10.17
2023-05-01T07:27:05.746Z,11.75
2023-05-01T07:30:09.553Z,10.27
2023-05-01T07:33:12.531Z,10.55
2023-05-01T07:36:15.297Z,10.15
2023-05-01T07:39:18.185Z,14.83
2023-05-01T07:42:21.217Z,11.48
2023-05-01T07:45:24.017Z,10.15
2023-05-01T07:48:28.209Z,10.52
2023-05-01T07:51:31.210Z,11.07
2023-05-01T07:54:34.520Z,11.83
2023-05-01T07:57:37.416Z,12.93
2023-05-01T08:00:40.348Z,10.15
2023-05-01T08:03:43.318Z,10.25
2023-05-01T08:06:46.298Z,9.25
2023-05-01T08:09:49.364Z,9.60
2023-05-01T08:12:52.185Z,12.05
2023-05-01T08:15:55.175Z,10.13
2023-05-01T08:18:58.334Z,10.30
2023-05-01T08:22:01.207Z,8.25
2023-05-01T08:25:04.931Z,16.43
2023-05-01T08:28:07.760Z,6.87
2023-05-01T08:31:10.749Z,10.18
2023-05-01T08:34:13.691Z,9.15
2023-05-01T08:37:16.522Z,10.25
2023-05-01T08:40:19.488Z,9.73
2023-05-01T08:43:23.327Z,8.63
2023-05-01T08:46:41.490Z,9.40
2023-05-01T08:49:46.185Z,9.50
2023-05-01T08:52:52.914Z,9.75
2023-05-01T08:56:00.056Z,8.67
2023-05-01T08:59:05.409Z,8.85
2023-05-01T09:02:09.612Z,7.70
2023-05-01T09:05:12.748Z,10.73
2023-05-01T09:08:15.794Z,9.10
2023-05-01T09:11:20.253Z,7.90
2023-05-01T09:14:23.648Z,8.82
2023-05-01T09:17:26.492Z,9.13
2023-05-01T09:20:29.522Z,8.05
2023-05-01T09:23:32.476Z,8.10
2023-05-01T09:26:38.608Z,10.07
2023-05-01T09:29:48.564Z,7.90
2023-05-01T09:33:13.119Z,7.43
2023-05-01T09:36:18.625Z,7.65
2023-05-01T09:39:24.702Z,7.53
2023-05-01T09:42:27.402Z,8.43
2023-05-01T09:45:30.282Z,7.93
2023-05-01T09:48:35.788Z,9.82
2023-05-01T09:51:39.797Z,7.85
2023-05-01T09:54:43.467Z,6.95
2023-05-01T09:57:46.990Z,8.67
2023-05-01T10:00:50.033Z,8.05
2023-05-01T10:03:56.846Z,8.25
2023-05-01T10:07:17.952Z,7.00
2023-05-01T10:10:21.989Z,7.82
2023-05-01T10:13:24.695Z,8.47
2023-05-01T10:16:31.305Z,8.38
2023-05-01T10:19:34.010Z,7.65
2023-05-01T10:22:36.814Z,8.02
2023-05-01T10:25:42.116Z,7.62
2023-05-01T10:28:48.086Z,7.10
2023-05-01T10:31:50.915Z,7.53
2023-05-01T10:35:01.180Z,9.20
2023-05-01T10:38:09.456Z,8.38
2023-05-01T10:41:12.864Z,8.30
2023-05-01T10:44:24.031Z,8.30
2023-05-01T10:47:31.613Z,9.60
2023-05-01T10:50:34.988Z,10.52
2023-05-01T10:53:38.566Z,8.02
2023-05-01T10:56:46.012Z,17.48
2023-05-01T11:00:03.770Z,6.70
2023-05-01T11:03:22.609Z,8.10
2023-05-01T11:06:26.201Z,7.80
2023-05-01T11:09:42.906Z,9.23
2023-05-01T11:12:48.397Z,9.73
2023-05-01T11:15:51.181Z,7.40
2023-05-01T11:18:54.040Z,7.45
2023-05-01T11:21:57.322Z,8.20
2023-05-01T11:25:01.192Z,9.75
2023-05-01T11:28:06.839Z,9.57
2023-05-01T11:31:12.005Z,11.60
2023-05-01T11:34:14.955Z,6.85
2023-05-01T11:37:17.959Z,9.20
2023-05-01T11:40:23.635Z,9.23
2023-05-01T11:43:27.412Z,7.32
2023-05-01T11:46:32.404Z,7.90
2023-05-01T11:49:39.265Z,7.57
2023-05-01T11:52:48.939Z,10.25
2023-05-01T11:55:52.307Z,9.13
2023-05-01T11:59:01.087Z,10.48
2023-05-01T12:02:20.766Z,7.43
2023-05-01T12:05:26.721Z,8.63
2023-05-01T12:08:31.471Z,6.30
2023-05-01T12:11:35.521Z,8.45
2023-05-01T12:14:38.600Z,7.25
2023-05-01T12:17:41.796Z,6.93
2023-05-01T12:20:47.701Z,6.43
2023-05-01T12:23:50.755Z,7.70
2023-05-01T12:27:00.822Z,7.55
2023-05-01T12:30:03.756Z,8.70
2023-05-01T12:33:14.153Z,13.60
2023-05-01T12:36:18.240Z,6.90
2023-05-01T12:39:23.744Z,8.23
2023-05-01T12:42:26.934Z,6.53
2023-05-01T12:45:29.746Z,8.40
2023-05-01T12:48:34.472Z,6.17
2023-05-01T12:51:37.263Z,7.43
2023-05-01T12:54:43.278Z,7.45
2023-05-01T12:57:55.714Z,7.05
2023-05-01T13:00:58.488Z,7.53
2023-05-01T13:04:01.680Z,7.40
2023-05-01T13:07:24.618Z,9.20
2023-05-01T13:10:31.735Z,8.15
2023-05-01T13:13:35.495Z,7.90
2023-05-01T13:16:47.815Z,7.65
2023-05-01T13:19:55.131Z,7.10
2023-05-01T13:22:57.888Z,10.13
2023-05-01T13:26:01.220Z,7.40
2023-05-01T13:29:05.956Z,9.65
2023-05-01T13:32:11.454Z,7.60
2023-05-01T13:35:22.774Z,7.33
2023-05-01T13:38:25.706Z,8.13
2023-05-01T13:41:28.919Z,9.93
2023-05-01T13:44:32.343Z,9.63
2023-05-01T13:47:38.964Z,13.18
2023-05-01T13:50:43.169Z,20.57
2023-05-01T13:53:45.910Z,9.02
2023-05-01T13:56:48.849Z,20.05
2023-05-01T13:59:51.786Z,9.43
2023-05-01T14:02:56.681Z,7.07
2023-05-01T14:05:59.492Z,8.20
2023-05-01T14:09:04.222Z,8.10
2023-05-01T14:12:06.848Z,20.25
2023-05-01T14:15:11.809Z,14.65
2023-05-01T14:18:17.621Z,9.35
2023-05-01T14:21:21.304Z,7.50
2023-05-01T14:24:24.221Z,7.55
2023-05-01T14:27:27.170Z,7.47
2023-05-01T14:30:38.625Z,6.32
2023-05-01T14:33:45.082Z,6.35
2023-05-01T14:36:47.809Z,6.60
2023-05-01T14:39:50.704Z,7.45
2023-05-01T14:42:54.422Z,11.43
2023-05-01T14:45:57.580Z,10.35
2023-05-01T14:49:01.686Z,6.60
2023-05-01T14:52:04.719Z,7.53
2023-05-01T14:55:08.527Z,23.45
2023-05-01T14:58:11.344Z,19.08
2023-05-01T15:01:15.162Z,11.80
2023-05-01T15:04:18.579Z,13.95
2023-05-01T15:07:22.431Z,7.73
2023-05-01T15:10:25.760Z,6.40
2023-05-01T15:13:29.088Z,8.88
2023-05-01T15:16:32.888Z,8.52
2023-05-01T15:19:35.665Z,9.40
2023-05-01T15:22:40.318Z,13.07
2023-05-01T15:25:44.645Z,8.05
2023-05-01T15:28:47.388Z,7.22
2023-05-01T15:31:58.303Z,8.07
2023-05-01T15:35:07.999Z,8.73
2023-05-01T15:38:10.793Z,8.63
2023-05-01T15:41:13.630Z,7.60
2023-05-01T15:44:17.024Z,10.55
2023-05-01T15:47:19.672Z,9.63
2023-05-01T15:50:23.856Z,8.27
2023-05-01T15:53:26.962Z,7.60
2023-05-01T15:56:30.140Z,7.65
2023-05-01T15:59:32.941Z,8.23
2023-05-01T16:02:35.641Z,9.05
2023-05-01T16:05:38.683Z,8.40
2023-05-01T16:08:41.577Z,21.57
2023-05-01T16:11:44.451Z,11.52
2023-05-01T16:14:48.000Z,53.33
2023-05-01T16:17:52.092Z,32.35
2023-05-01T16:20:56.912Z,35.58
2023-05-01T16:24:01.721Z,23.00
2023-05-01T16:27:04.816Z,11.52
2023-05-01T16:30:09.262Z,7.57
2023-05-01T16:33:21.717Z,12.13
2023-05-01T16:36:24.756Z,15.85
2023-05-01T16:39:27.622Z,15.83
2023-05-01T16:42:30.444Z,9.82
2023-05-01T16:45:33.136Z,12.00
2023-05-01T16:48:36.040Z,9.73
2023-05-01T16:51:41.386Z,8.68
2023-05-01T16:54:44.517Z,14.87
2023-05-01T16:57:47.594Z,15.18
2023-05-01T17:00:50.717Z,13.90
2023-05-01T17:03:54.129Z,11.63
2023-05-01T17:06:57.234Z,10.98
2023-05-01T17:10:00.271Z,10.17
2023-05-01T17:13:03.194Z,22.85
2023-05-01T17:16:06.669Z,35.88
2023-05-01T17:19:10.100Z,11.82
2023-05-01T17:22:13.016Z,23.30
2023-05-01T17:25:15.986Z,14.80
2023-05-01T17:28:19.218Z,30.73
2023-05-01T17:31:22.789Z,10.82
2023-05-01T17:34:25.782Z,7.97
2023-05-01T17:37:28.687Z,9.52
2023-05-01T17:40:32.598Z,11.03
2023-05-01T17:43:35.442Z,12.57
2023-05-01T17:46:39.164Z,10.20
2023-05-01T17:49:42.380Z,9.38
2023-05-01T17:52:48.436Z,13.35
2023-05-01T17:55:51.267Z,21.67
2023-05-01T17:58:55.182Z,31.70
2023-05-01T18:01:58.740Z,16.90
2023-05-01T18:05:02.370Z,16.67
2023-05-01T18:08:06.937Z,11.25
2023-05-01T18:11:11.231Z,14.40
2023-05-01T18:14:14.830Z,9.02
2023-05-01T18:17:23.180Z,9.45
2023-05-01T18:20:27.213Z,14.05
2023-05-01T18:23:30.090Z,12.27
2023-05-01T18:26:33.265Z,9.57
2023-05-01T18:29:36.907Z,11.60
2023-05-01T18:32:48.191Z,12.30
2023-05-01T18:35:52.261Z,11.12
2023-05-01T18:38:56.412Z,9.73
2023-05-01T18:42:04.171Z,17.97
2023-05-01T18:45:12.576Z,24.92
2023-05-01T18:48:17.535Z,16.90
2023-05-01T18:51:22.872Z,30.00
2023-05-01T18:54:26.346Z,32.33
2023-05-01T18:57:30.453Z,32.53
2023-05-01T19:00:33.613Z,24.90
2023-05-01T19:03:37.712Z,33.05
2023-05-01T19:06:41.939Z,19.60
2023-05-01T19:09:46.142Z,47.58
2023-05-01T19:12:49.668Z,38.17
2023-05-01T19:15:53.663Z,27.98
2023-05-01T19:18:58.935Z,14.50
2023-05-01T19:22:03.735Z,12.85
2023-05-01T19:25:07.232Z,21.15
2023-05-01T19:28:10.280Z,20.37
2023-05-01T19:31:14.818Z,16.58
2023-05-01T19:34:18.111Z,13.40
2023-05-01T19:37:21.601Z,18.65
2023-05-01T19:40:25.394Z,20.02
2023-05-01T19:43:28.593Z,20.03
2023-05-01T19:46:31.483Z,19.58
2023-05-01T19:49:34.859Z,16.40
2023-05-01T19:52:37.830Z,19.52
2023-05-01T19:55:41.149Z,29.27
2023-05-01T19:58:44.415Z,31.70
2023-05-01T20:01:47.511Z,28.30
2023-05-01T20:04:50.531Z,27.85
2023-05-01T20:08:00.273Z,29.50
2023-05-01T20:11:03.585Z,23.35
2023-05-01T20:14:06.535Z,21.27
2023-05-01T20:17:09.674Z,22.37
2023-05-01T20:20:12.997Z,16.20
2023-05-01T20:23:17.960Z,15.23
2023-05-01T20:26:21.113Z,14.95
2023-05-01T20:29:23.904Z,17.80
2023-05-01T20:32:27.001Z,17.12
2023-05-01T20:35:30.788Z,15.30
2023-05-01T20:38:33.608Z,18.15
2023-05-01T20:41:36.858Z,24.70
2023-05-01T20:44:40.359Z,26.23
2023-05-01T20:47:43.057Z,31.00
2023-05-01T20:50:47.797Z,28.75
2023-05-01T20:53:50.773Z,25.85
2023-05-01T20:56:53.436Z,24.60
2023-05-01T20:59:56.622Z,28.80
2023-05-01T21:03:00.040Z,24.45
2023-05-01T21:06:02.972Z,24.58
2023-05-01T21:09:06.469Z,20.70
2023-05-01T21:12:11.104Z,19.87
2023-05-01T21:15:13.926Z,19.70
2023-05-01T21:18:18.216Z,22.45
2023-05-01T21:21:25.143Z,21.77
2023-05-01T21:24:27.857Z,18.08
2023-05-01T21:27:30.881Z,21.23
2023-05-01T21:30:36.596Z,20.80
2023-05-01T21:33:46.111Z,21.67
2023-05-01T21:36:49.451Z,24.67
2023-05-01T21:39:52.832Z,23.35
2023-05-01T21:42:56.451Z,20.67
2023-05-01T21:46:02.900Z,23.60
2023-05-01T21:49:05.776Z,21.37
2023-05-01T21:52:11.842Z,24.20
2023-05-01T21:55:26.071Z,23.58
2023-05-01T21:58:29.013Z,23.42
2023-05-01T22:01:32.055Z,22.73
2023-05-01T22:04:35.373Z,24.23
2023-05-01T22:07:40.259Z,23.38
2023-05-01T22:10:45.684Z,21.55
2023-05-01T22:13:48.440Z,20.42
2023-05-01T22:16:54.053Z,21.67
2023-05-01T22:19:56.983Z,19.02
2023-05-01T22:22:59.932Z,21.40
2023-05-01T22:26:02.594Z,18.02
2023-05-01T22:29:05.393Z,19.10
2023-05-01T22:32:08.259Z,20.70
2023-05-01T22:35:14.022Z,20.02
2023-05-01T22:38:16.882Z,21.52
2023-05-01T22:41:19.748Z,17.48
2023-05-01T22:44:22.655Z,22.08
2023-05-01T22:47:25.470Z,18.77
2023-05-01T22:50:28.436Z,17.65
2023-05-01T22:53:34.298Z,20.50
2023-05-01T22:56:40.278Z,18.48
2023-05-01T22:59:43.710Z,16.45
2023-05-01T23:02:46.850Z,19.17
2023-05-01T23:05:52.872Z,17.85
2023-05-01T23:08:55.503Z,16.73
2023-05-01T23:11:58.423Z,17.50
2023-05-01T23:15:04.607Z,17.77
2023-05-01T23:18:09.576Z,15.50
2023-05-01T23:21:17.508Z,18.33
2023-05-01T23:24:21.425Z,17.77
2023-05-01T23:27:24.121Z,15.98
2023-05-01T23:30:26.932Z,15.95
2023-05-01T23:33:35.177Z,16.00
2023-05-01T23:36:38.213Z,15.10
2023-05-01T23:39:40.846Z,14.60
2023-05-01T23:42:43.704Z,18.08
2023-05-01T23:45:46.801Z,15.85
2023-05-01T23:48:49.530Z,15.53
2023-05-01T23:51:52.759Z,13.00
2023-05-01T23:54:55.762Z,17.02
2023-05-01T23:57:58.604Z,14.40
